sensor_id;sensor_type;location;lat;lon;timestamp;noise_LAeq;noise_LA_min;noise_LA_max;noise_LA01;noise_LA95
71020;Laerm;58902;51.436;5.980;2023-01-25T00:00:06;39.33;31.11;52.24;;
71020;Laerm;58902;51.436;5.980;2023-01-25T00:00:17;38.85;34.64;49.56;;
71020;Laerm;58902;51.436;5.980;2023-01-25T00:00:27;34.35;30.12;36.25;;
71020;Laerm;58902;51.436;5.980;2023-01-25T00:00:38;32.17;31.13;33.19;;
71020;Laerm;58902;51.436;5.980;2023-01-25T00:00:48;32.26;31.14;33.46;;
71020;Laerm;58902;51.436;5.980;2023-01-25T00:01:03;33.74;30.97;36.40;;
71020;Laerm;58902;51.436;5.980;2023-01-25T00:01:13;35.12;33.40;36.17;;
71020;Laerm;58902;51.436;5.980;2023-01-25T00:01:23;34.51;32.93;36.01;;
71020;Laerm;58902;51.436;5.980;2023-01-25T00:01:34;31.60;29.35;37.74;;
71020;Laerm;58902;51.436;5.980;2023-01-25T00:01:44;31.48;29.47;38.15;;
71020;Laerm;58902;51.436;5.980;2023-01-25T00:01:55;30.38;29.17;32.33;;
71020;Laerm;58902;51.436;5.980;2023-01-25T00:02:05;29.85;28.49;31.34;;
71020;Laerm;58902;51.436;5.980;2023-01-25T00:02:15;29.66;28.34;30.81;;
71020;Laerm;58902;51.436;5.980;2023-01-25T00:02:26;29.75;28.53;32.16;;
71020;Laerm;58902;51.436;5.980;2023-01-25T00:02:36;30.22;29.02;31.35;;
71020;Laerm;58902;51.436;5.980;2023-01-25T00:02:47;30.59;29.66;31.72;;
71020;Laerm;58902;51.436;5.980;2023-01-25T00:02:57;31.15;29.63;34.29;;
71020;Laerm;58902;51.436;5.980;2023-01-25T00:03:07;34.30;32.36;35.90;;
71020;Laerm;58902;51.436;5.980;2023-01-25T00:03:18;35.81;34.60;36.79;;
71020;Laerm;58902;51.436;5.980;2023-01-25T00:03:28;34.78;30.70;36.63;;
71020;Laerm;58902;51.436;5.980;2023-01-25T00:03:39;32.21;31.12;33.31;;
71020;Laerm;58902;51.436;5.980;2023-01-25T00:03:49;32.28;31.13;33.27;;
71020;Laerm;58902;51.436;5.980;2023-01-25T00:03:59;32.35;29.65;34.04;;
71020;Laerm;58902;51.436;5.980;2023-01-25T00:04:11;33.17;31.77;34.94;;
71020;Laerm;58902;51.436;5.980;2023-01-25T00:04:21;33.03;32.03;33.90;;
71020;Laerm;58902;51.436;5.980;2023-01-25T00:04:32;34.04;32.51;35.41;;
71020;Laerm;58902;51.436;5.980;2023-01-25T00:04:42;33.40;30.64;35.75;;
71020;Laerm;58902;51.436;5.980;2023-01-25T00:04:53;32.82;31.79;33.79;;
71020;Laerm;58902;51.436;5.980;2023-01-25T00:05:03;32.73;31.40;33.91;;
71020;Laerm;58902;51.436;5.980;2023-01-25T00:05:14;32.55;29.42;33.93;;
71020;Laerm;58902;51.436;5.980;2023-01-25T00:05:24;30.46;29.02;32.57;;
71020;Laerm;58902;51.436;5.980;2023-01-25T00:05:34;30.28;29.05;31.55;;
71020;Laerm;58902;51.436;5.980;2023-01-25T00:05:45;30.66;29.18;32.77;;
71020;Laerm;58902;51.436;5.980;2023-01-25T00:05:59;30.85;29.17;31.98;;
71020;Laerm;58902;51.436;5.980;2023-01-25T00:06:10;30.83;29.77;31.93;;
71020;Laerm;58902;51.436;5.980;2023-01-25T00:06:20;35.16;29.91;36.87;;
71020;Laerm;58902;51.436;5.980;2023-01-25T00:06:31;36.33;35.49;37.29;;
71020;Laerm;58902;51.436;5.980;2023-01-25T00:06:41;36.12;31.61;37.25;;
71020;Laerm;58902;51.436;5.980;2023-01-25T00:06:52;35.23;30.40;42.58;;
71020;Laerm;58902;51.436;5.980;2023-01-25T00:07:02;41.21;37.99;44.12;;
71020;Laerm;58902;51.436;5.980;2023-01-25T00:07:12;37.32;34.21;43.23;;
71020;Laerm;58902;51.436;5.980;2023-01-25T00:07:23;37.14;34.32;39.75;;
71020;Laerm;58902;51.436;5.980;2023-01-25T00:07:33;38.94;36.11;41.04;;
71020;Laerm;58902;51.436;5.980;2023-01-25T00:07:44;42.40;38.42;46.89;;
71020;Laerm;58902;51.436;5.980;2023-01-25T00:07:54;74.89;43.79;83.32;;
71020;Laerm;58902;51.436;5.980;2023-01-25T00:08:05;75.74;71.92;82.45;;
71020;Laerm;58902;51.436;5.980;2023-01-25T00:08:15;76.27;71.09;80.85;;
71020;Laerm;58902;51.436;5.980;2023-01-25T00:08:25;72.78;41.78;80.29;;
71020;Laerm;58902;51.436;5.980;2023-01-25T00:08:36;40.38;36.80;44.54;;
71020;Laerm;58902;51.436;5.980;2023-01-25T00:08:50;36.97;35.55;38.99;;
71020;Laerm;58902;51.436;5.980;2023-01-25T00:09:01;34.40;31.06;37.39;;
71020;Laerm;58902;51.436;5.980;2023-01-25T00:09:12;32.08;30.97;33.50;;
71020;Laerm;58902;51.436;5.980;2023-01-25T00:09:23;33.22;31.21;35.49;;
71020;Laerm;58902;51.436;5.980;2023-01-25T00:09:34;34.76;32.36;38.05;;
71020;Laerm;58902;51.436;5.980;2023-01-25T00:09:44;32.35;30.71;34.30;;
71020;Laerm;58902;51.436;5.980;2023-01-25T00:09:54;32.00;30.78;33.70;;
71020;Laerm;58902;51.436;5.980;2023-01-25T00:10:05;31.34;30.13;32.64;;
71020;Laerm;58902;51.436;5.980;2023-01-25T00:10:15;33.39;30.44;35.73;;
71020;Laerm;58902;51.436;5.980;2023-01-25T00:10:26;31.60;29.38;35.40;;
71020;Laerm;58902;51.436;5.980;2023-01-25T00:10:36;32.97;31.46;34.72;;
71020;Laerm;58902;51.436;5.980;2023-01-25T00:10:49;36.29;33.89;38.31;;
71020;Laerm;58902;51.436;5.980;2023-01-25T00:11:00;38.07;32.61;43.60;;
71020;Laerm;58902;51.436;5.980;2023-01-25T00:11:10;33.01;31.69;34.28;;
71020;Laerm;58902;51.436;5.980;2023-01-25T00:11:20;32.61;31.41;33.45;;
71020;Laerm;58902;51.436;5.980;2023-01-25T00:11:31;32.77;31.42;34.05;;
71020;Laerm;58902;51.436;5.980;2023-01-25T00:11:41;32.66;31.75;33.61;;
71020;Laerm;58902;51.436;5.980;2023-01-25T00:11:52;32.45;31.34;33.65;;
71020;Laerm;58902;51.436;5.980;2023-01-25T00:12:05;32.52;31.03;35.29;;
71020;Laerm;58902;51.436;5.980;2023-01-25T00:12:15;31.98;30.14;33.24;;
71020;Laerm;58902;51.436;5.980;2023-01-25T00:12:26;31.42;30.07;33.18;;
71020;Laerm;58902;51.436;5.980;2023-01-25T00:12:36;32.04;30.81;33.29;;
71020;Laerm;58902;51.436;5.980;2023-01-25T00:12:46;33.51;32.00;35.01;;
71020;Laerm;58902;51.436;5.980;2023-01-25T00:12:57;33.57;31.52;35.08;;
71020;Laerm;58902;51.436;5.980;2023-01-25T00:13:07;32.90;31.54;34.40;;
71020;Laerm;58902;51.436;5.980;2023-01-25T00:13:17;32.41;31.19;33.86;;
71020;Laerm;58902;51.436;5.980;2023-01-25T00:13:28;32.45;31.16;33.80;;
71020;Laerm;58902;51.436;5.980;2023-01-25T00:13:38;32.22;31.06;33.42;;
71020;Laerm;58902;51.436;5.980;2023-01-25T00:13:51;32.43;31.19;33.73;;
71020;Laerm;58902;51.436;5.980;2023-01-25T00:14:02;32.07;30.29;33.20;;
71020;Laerm;58902;51.436;5.980;2023-01-25T00:14:13;32.27;30.62;33.79;;
71020;Laerm;58902;51.436;5.980;2023-01-25T00:14:23;32.05;29.56;34.25;;
71020;Laerm;58902;51.436;5.980;2023-01-25T00:14:34;31.16;29.80;32.57;;
71020;Laerm;58902;51.436;5.980;2023-01-25T00:14:44;32.26;30.90;33.63;;
71020;Laerm;58902;51.436;5.980;2023-01-25T00:14:54;34.11;31.96;36.35;;
71020;Laerm;58902;51.436;5.980;2023-01-25T00:15:05;32.95;31.39;40.27;;
71020;Laerm;58902;51.436;5.980;2023-01-25T00:15:15;31.80;30.63;34.31;;
71020;Laerm;58902;51.436;5.980;2023-01-25T00:15:26;33.20;30.36;36.48;;
71020;Laerm;58902;51.436;5.980;2023-01-25T00:15:36;32.88;31.76;34.33;;
71020;Laerm;58902;51.436;5.980;2023-01-25T00:15:46;32.33;30.14;35.50;;
71020;Laerm;58902;51.436;5.980;2023-01-25T00:16:01;32.49;29.50;34.77;;
71020;Laerm;58902;51.436;5.980;2023-01-25T00:16:11;32.88;31.28;34.58;;
71020;Laerm;58902;51.436;5.980;2023-01-25T00:16:22;33.49;30.07;36.82;;
71020;Laerm;58902;51.436;5.980;2023-01-25T00:16:33;32.19;30.18;34.16;;
71020;Laerm;58902;51.436;5.980;2023-01-25T00:16:43;33.37;32.41;34.65;;
71020;Laerm;58902;51.436;5.980;2023-01-25T00:16:54;33.56;30.57;34.97;;
71020;Laerm;58902;51.436;5.980;2023-01-25T00:17:04;33.89;32.61;34.74;;
71020;Laerm;58902;51.436;5.980;2023-01-25T00:17:14;33.44;30.83;34.73;;
71020;Laerm;58902;51.436;5.980;2023-01-25T00:17:25;32.06;30.45;34.00;;
71020;Laerm;58902;51.436;5.980;2023-01-25T00:17:35;31.80;30.59;32.83;;
71020;Laerm;58902;51.436;5.980;2023-01-25T00:17:45;31.84;29.83;32.98;;
71020;Laerm;58902;51.436;5.980;2023-01-25T00:17:56;32.53;30.75;35.93;;
71020;Laerm;58902;51.436;5.980;2023-01-25T00:18:06;31.65;29.98;33.17;;
71020;Laerm;58902;51.436;5.980;2023-01-25T00:18:16;32.32;30.98;33.43;;
71020;Laerm;58902;51.436;5.980;2023-01-25T00:18:27;32.85;31.43;34.44;;
71020;Laerm;58902;51.436;5.980;2023-01-25T00:18:37;31.41;28.67;33.46;;
71020;Laerm;58902;51.436;5.980;2023-01-25T00:18:48;29.47;28.46;30.60;;
71020;Laerm;58902;51.436;5.980;2023-01-25T00:18:58;29.41;28.28;30.92;;
71020;Laerm;58902;51.436;5.980;2023-01-25T00:19:09;29.44;28.50;30.77;;
71020;Laerm;58902;51.436;5.980;2023-01-25T00:19:19;29.44;28.48;31.49;;
71020;Laerm;58902;51.436;5.980;2023-01-25T00:19:30;29.54;28.26;31.38;;
71020;Laerm;58902;51.436;5.980;2023-01-25T00:19:40;29.50;28.33;30.72;;
71020;Laerm;58902;51.436;5.980;2023-01-25T00:19:50;29.54;28.56;30.72;;
71020;Laerm;58902;51.436;5.980;2023-01-25T00:20:01;30.74;28.34;47.49;;
71020;Laerm;58902;51.436;5.980;2023-01-25T00:20:11;29.56;28.48;30.80;;
71020;Laerm;58902;51.436;5.980;2023-01-25T00:20:22;29.54;28.28;31.10;;
71020;Laerm;58902;51.436;5.980;2023-01-25T00:20:32;29.52;28.20;30.92;;
71020;Laerm;58902;51.436;5.980;2023-01-25T00:20:42;29.48;28.54;30.52;;
71020;Laerm;58902;51.436;5.980;2023-01-25T00:20:53;29.51;28.23;30.62;;
71020;Laerm;58902;51.436;5.980;2023-01-25T00:21:13;30.51;29.06;32.05;;
71020;Laerm;58902;51.436;5.980;2023-01-25T00:21:24;30.03;28.62;31.86;;
71020;Laerm;58902;51.436;5.980;2023-01-25T00:21:35;29.78;28.76;30.71;;
71020;Laerm;58902;51.436;5.980;2023-01-25T00:21:45;29.75;28.64;31.23;;
71020;Laerm;58902;51.436;5.980;2023-01-25T00:21:56;29.81;28.63;30.76;;
71020;Laerm;58902;51.436;5.980;2023-01-25T00:22:06;29.79;28.70;30.92;;
71020;Laerm;58902;51.436;5.980;2023-01-25T00:22:17;29.96;28.73;31.29;;
71020;Laerm;58902;51.436;5.980;2023-01-25T00:22:27;30.24;29.29;31.42;;
71020;Laerm;58902;51.436;5.980;2023-01-25T00:22:37;30.07;28.99;31.10;;
71020;Laerm;58902;51.436;5.980;2023-01-25T00:22:48;31.44;29.13;33.12;;
71020;Laerm;58902;51.436;5.980;2023-01-25T00:22:58;32.79;31.81;33.96;;
71020;Laerm;58902;51.436;5.980;2023-01-25T00:23:08;33.08;32.02;34.21;;
71020;Laerm;58902;51.436;5.980;2023-01-25T00:23:19;33.25;31.01;34.42;;
71020;Laerm;58902;51.436;5.980;2023-01-25T00:23:32;33.54;32.40;34.35;;
71020;Laerm;58902;51.436;5.980;2023-01-25T00:23:43;33.86;32.68;34.94;;
71020;Laerm;58902;51.436;5.980;2023-01-25T00:23:53;33.66;31.83;35.26;;
71020;Laerm;58902;51.436;5.980;2023-01-25T00:24:04;33.24;32.14;34.45;;
71020;Laerm;58902;51.436;5.980;2023-01-25T00:24:14;33.20;31.50;34.59;;
71020;Laerm;58902;51.436;5.980;2023-01-25T00:24:24;32.99;30.98;35.46;;
71020;Laerm;58902;51.436;5.980;2023-01-25T00:24:35;32.49;31.50;33.49;;
71020;Laerm;58902;51.436;5.980;2023-01-25T00:24:45;33.36;31.95;34.87;;
71020;Laerm;58902;51.436;5.980;2023-01-25T00:24:56;39.14;31.75;40.60;;
71020;Laerm;58902;51.436;5.980;2023-01-25T00:25:06;39.89;38.95;40.58;;
71020;Laerm;58902;51.436;5.980;2023-01-25T00:25:17;39.02;34.61;41.84;;
71020;Laerm;58902;51.436;5.980;2023-01-25T00:25:27;31.94;30.43;35.08;;
71020;Laerm;58902;51.436;5.980;2023-01-25T00:25:37;31.72;30.49;33.05;;
71020;Laerm;58902;51.436;5.980;2023-01-25T00:25:48;31.73;30.34;33.26;;
71020;Laerm;58902;51.436;5.980;2023-01-25T00:25:58;32.30;30.77;33.54;;
71020;Laerm;58902;51.436;5.980;2023-01-25T00:26:08;32.93;31.96;34.11;;
71020;Laerm;58902;51.436;5.980;2023-01-25T00:26:19;32.91;30.81;34.43;;
71020;Laerm;58902;51.436;5.980;2023-01-25T00:26:30;31.84;30.52;33.67;;
71020;Laerm;58902;51.436;5.980;2023-01-25T00:26:41;32.02;30.97;33.33;;
71020;Laerm;58902;51.436;5.980;2023-01-25T00:26:53;33.11;30.89;35.05;;
71020;Laerm;58902;51.436;5.980;2023-01-25T00:27:03;33.32;31.07;34.63;;
71020;Laerm;58902;51.436;5.980;2023-01-25T00:27:13;32.78;31.04;34.06;;
71020;Laerm;58902;51.436;5.980;2023-01-25T00:27:24;34.14;30.98;37.83;;
71020;Laerm;58902;51.436;5.980;2023-01-25T00:27:34;34.57;33.22;35.69;;
71020;Laerm;58902;51.436;5.980;2023-01-25T00:27:44;35.38;33.63;37.00;;
71020;Laerm;58902;51.436;5.980;2023-01-25T00:27:55;34.00;31.64;38.14;;
71020;Laerm;58902;51.436;5.980;2023-01-25T00:28:05;33.15;31.52;34.15;;
71020;Laerm;58902;51.436;5.980;2023-01-25T00:28:15;34.86;33.05;41.43;;
71020;Laerm;58902;51.436;5.980;2023-01-25T00:28:25;35.51;30.97;41.43;;
71020;Laerm;58902;51.436;5.980;2023-01-25T00:28:36;37.76;31.66;47.23;;
71020;Laerm;58902;51.436;5.980;2023-01-25T00:28:49;33.80;30.06;45.22;;
71020;Laerm;58902;51.436;5.980;2023-01-25T00:29:00;30.81;29.37;32.16;;
71020;Laerm;58902;51.436;5.980;2023-01-25T00:29:11;30.82;29.55;32.14;;
71020;Laerm;58902;51.436;5.980;2023-01-25T00:29:23;30.62;29.48;31.67;;
71020;Laerm;58902;51.436;5.980;2023-01-25T00:29:33;30.94;29.75;32.17;;
71020;Laerm;58902;51.436;5.980;2023-01-25T00:29:43;30.10;28.58;34.07;;
71020;Laerm;58902;51.436;5.980;2023-01-25T00:29:54;29.79;28.77;30.95;;
71020;Laerm;58902;51.436;5.980;2023-01-25T00:30:04;30.07;28.69;31.24;;
71020;Laerm;58902;51.436;5.980;2023-01-25T00:30:15;29.98;28.57;32.50;;
71020;Laerm;58902;51.436;5.980;2023-01-25T00:30:25;29.94;28.61;31.90;;
71020;Laerm;58902;51.436;5.980;2023-01-25T00:30:36;29.70;28.69;30.95;;
71020;Laerm;58902;51.436;5.980;2023-01-25T00:30:46;29.73;28.55;30.82;;
71020;Laerm;58902;51.436;5.980;2023-01-25T00:31:00;30.44;28.85;32.26;;
71020;Laerm;58902;51.436;5.980;2023-01-25T00:31:14;38.67;29.24;51.90;;
71020;Laerm;58902;51.436;5.980;2023-01-25T00:31:31;30.35;28.93;32.62;;
71020;Laerm;58902;51.436;5.980;2023-01-25T00:32:27;34.27;33.03;35.92;;
71020;Laerm;58902;51.436;5.980;2023-01-25T00:34:00;35.49;33.38;37.75;;
71020;Laerm;58902;51.436;5.980;2023-01-25T00:34:38;36.20;34.11;38.44;;
71020;Laerm;58902;51.436;5.980;2023-01-25T00:34:52;35.50;33.56;37.35;;
71020;Laerm;58902;51.436;5.980;2023-01-25T00:35:02;38.49;34.25;39.92;;
71020;Laerm;58902;51.436;5.980;2023-01-25T00:35:13;39.31;37.94;40.35;;
71020;Laerm;58902;51.436;5.980;2023-01-25T00:35:24;38.72;33.47;42.89;;
71020;Laerm;58902;51.436;5.980;2023-01-25T00:35:39;35.85;32.78;40.29;;
71020;Laerm;58902;51.436;5.980;2023-01-25T00:35:49;34.89;32.30;38.02;;
71020;Laerm;58902;51.436;5.980;2023-01-25T00:36:00;32.69;31.07;33.91;;
71020;Laerm;58902;51.436;5.980;2023-01-25T00:36:40;32.47;30.61;37.50;;
71020;Laerm;58902;51.436;5.980;2023-01-25T00:36:51;32.36;31.13;36.15;;
71020;Laerm;58902;51.436;5.980;2023-01-25T00:37:19;36.69;35.63;37.74;;
71020;Laerm;58902;51.436;5.980;2023-01-25T00:37:38;34.74;30.11;37.80;;
71020;Laerm;58902;51.436;5.980;2023-01-25T00:37:51;31.91;29.20;35.12;;
71020;Laerm;58902;51.436;5.980;2023-01-25T00:38:02;35.89;29.39;38.62;;
71020;Laerm;58902;51.436;5.980;2023-01-25T00:38:28;40.53;37.97;41.94;;
71020;Laerm;58902;51.436;5.980;2023-01-25T00:38:39;37.67;31.33;46.08;;
71020;Laerm;58902;51.436;5.980;2023-01-25T00:38:52;33.01;31.17;35.52;;
71020;Laerm;58902;51.436;5.980;2023-01-25T00:39:03;32.61;31.00;35.39;;
71020;Laerm;58902;51.436;5.980;2023-01-25T00:39:14;32.57;31.25;35.22;;
71020;Laerm;58902;51.436;5.980;2023-01-25T00:39:25;40.60;31.16;45.46;;
71020;Laerm;58902;51.436;5.980;2023-01-25T00:39:36;39.72;33.53;43.58;;
71020;Laerm;58902;51.436;5.980;2023-01-25T00:39:50;37.82;33.21;40.57;;
71020;Laerm;58902;51.436;5.980;2023-01-25T00:40:01;42.35;35.77;45.21;;
71020;Laerm;58902;51.436;5.980;2023-01-25T00:40:11;44.88;43.31;47.36;;
71020;Laerm;58902;51.436;5.980;2023-01-25T00:40:22;73.23;45.12;83.26;;
71020;Laerm;58902;51.436;5.980;2023-01-25T00:40:33;74.72;71.54;79.12;;
71020;Laerm;58902;51.436;5.980;2023-01-25T00:40:43;74.30;71.42;78.59;;
71020;Laerm;58902;51.436;5.980;2023-01-25T00:40:53;63.49;38.16;76.25;;
71020;Laerm;58902;51.436;5.980;2023-01-25T00:41:04;36.87;33.98;46.99;;
71020;Laerm;58902;51.436;5.980;2023-01-25T00:41:14;36.20;34.31;37.50;;
71020;Laerm;58902;51.436;5.980;2023-01-25T00:41:24;34.56;30.43;37.15;;
71020;Laerm;58902;51.436;5.980;2023-01-25T00:41:35;32.03;30.88;33.77;;
71020;Laerm;58902;51.436;5.980;2023-01-25T00:41:45;32.08;31.01;33.14;;
71020;Laerm;58902;51.436;5.980;2023-01-25T00:41:56;32.03;29.96;35.46;;
71020;Laerm;58902;51.436;5.980;2023-01-25T00:42:07;31.04;29.96;32.22;;
71020;Laerm;58902;51.436;5.980;2023-01-25T00:42:19;32.31;30.10;34.37;;
71020;Laerm;58902;51.436;5.980;2023-01-25T00:42:29;32.12;29.72;35.18;;
71020;Laerm;58902;51.436;5.980;2023-01-25T00:42:39;30.56;29.43;32.08;;
71020;Laerm;58902;51.436;5.980;2023-01-25T00:42:50;30.53;29.26;31.39;;
71020;Laerm;58902;51.436;5.980;2023-01-25T00:43:00;33.26;29.48;35.51;;
71020;Laerm;58902;51.436;5.980;2023-01-25T00:43:11;33.67;32.42;34.73;;
71020;Laerm;58902;51.436;5.980;2023-01-25T00:43:23;33.80;32.71;34.71;;
71020;Laerm;58902;51.436;5.980;2023-01-25T00:43:33;33.81;32.28;35.02;;
71020;Laerm;58902;51.436;5.980;2023-01-25T00:43:44;34.12;33.10;35.00;;
71020;Laerm;58902;51.436;5.980;2023-01-25T00:43:54;33.96;33.06;34.91;;
71020;Laerm;58902;51.436;5.980;2023-01-25T00:44:05;34.06;33.05;35.01;;
71020;Laerm;58902;51.436;5.980;2023-01-25T00:44:15;31.96;29.61;35.00;;
71020;Laerm;58902;51.436;5.980;2023-01-25T00:44:28;30.65;28.92;32.37;;
71020;Laerm;58902;51.436;5.980;2023-01-25T00:44:38;30.38;29.03;32.27;;
71020;Laerm;58902;51.436;5.980;2023-01-25T00:44:49;30.41;29.13;31.92;;
71020;Laerm;58902;51.436;5.980;2023-01-25T00:44:59;30.64;29.59;31.88;;
71020;Laerm;58902;51.436;5.980;2023-01-25T00:45:10;30.35;29.14;31.92;;
71020;Laerm;58902;51.436;5.980;2023-01-25T00:45:22;39.67;28.75;46.46;;
71020;Laerm;58902;51.436;5.980;2023-01-25T00:45:32;39.38;32.32;44.33;;
71020;Laerm;58902;51.436;5.980;2023-01-25T00:45:42;35.37;32.20;40.45;;
71020;Laerm;58902;51.436;5.980;2023-01-25T00:45:58;37.15;33.33;40.30;;
71020;Laerm;58902;51.436;5.980;2023-01-25T00:46:10;68.06;33.76;79.41;;
71020;Laerm;58902;51.436;5.980;2023-01-25T00:46:23;72.75;69.38;76.29;;
71020;Laerm;58902;51.436;5.980;2023-01-25T00:46:34;72.13;50.34;79.39;;
71020;Laerm;58902;51.436;5.980;2023-01-25T00:46:44;48.55;43.39;51.53;;
71020;Laerm;58902;51.436;5.980;2023-01-25T00:46:55;42.48;39.14;47.69;;
71020;Laerm;58902;51.436;5.980;2023-01-25T00:47:05;38.81;34.49;45.75;;
71020;Laerm;58902;51.436;5.980;2023-01-25T00:47:16;34.60;31.81;37.09;;
71020;Laerm;58902;51.436;5.980;2023-01-25T00:47:26;32.30;30.55;33.76;;
71020;Laerm;58902;51.436;5.980;2023-01-25T00:47:36;32.49;30.61;34.71;;
71020;Laerm;58902;51.436;5.980;2023-01-25T00:47:47;31.09;29.71;34.83;;
71020;Laerm;58902;51.436;5.980;2023-01-25T00:47:57;30.36;28.71;32.10;;
71020;Laerm;58902;51.436;5.980;2023-01-25T00:48:07;30.12;29.17;30.96;;
71020;Laerm;58902;51.436;5.980;2023-01-25T00:48:18;30.99;29.03;33.56;;
71020;Laerm;58902;51.436;5.980;2023-01-25T00:48:28;30.78;29.39;32.02;;
71020;Laerm;58902;51.436;5.980;2023-01-25T00:48:39;30.68;29.40;32.08;;
71020;Laerm;58902;51.436;5.980;2023-01-25T00:48:51;31.68;29.48;34.03;;
71020;Laerm;58902;51.436;5.980;2023-01-25T00:49:02;31.41;30.05;32.67;;
71020;Laerm;58902;51.436;5.980;2023-01-25T00:49:19;32.59;30.35;36.52;;
71020;Laerm;58902;51.436;5.980;2023-01-25T00:49:31;34.90;31.70;37.13;;
71020;Laerm;58902;51.436;5.980;2023-01-25T00:49:41;33.32;30.05;34.69;;
71020;Laerm;58902;51.436;5.980;2023-01-25T00:49:52;32.02;30.75;33.27;;
71020;Laerm;58902;51.436;5.980;2023-01-25T00:50:03;32.43;30.85;33.84;;
71020;Laerm;58902;51.436;5.980;2023-01-25T00:50:14;33.93;31.88;36.76;;
71020;Laerm;58902;51.436;5.980;2023-01-25T00:50:24;35.73;34.02;36.74;;
71020;Laerm;58902;51.436;5.980;2023-01-25T00:50:37;35.55;34.38;36.77;;
71020;Laerm;58902;51.436;5.980;2023-01-25T00:50:48;34.94;32.94;36.42;;
71020;Laerm;58902;51.436;5.980;2023-01-25T00:51:00;34.69;33.20;36.98;;
71020;Laerm;58902;51.436;5.980;2023-01-25T00:51:11;33.52;32.09;34.91;;
71020;Laerm;58902;51.436;5.980;2023-01-25T00:51:22;34.88;31.68;39.15;;
71020;Laerm;58902;51.436;5.980;2023-01-25T00:51:33;38.06;36.50;39.14;;
71020;Laerm;58902;51.436;5.980;2023-01-25T00:51:43;38.18;36.41;39.16;;
71020;Laerm;58902;51.436;5.980;2023-01-25T00:51:53;37.27;31.13;42.59;;
71020;Laerm;58902;51.436;5.980;2023-01-25T00:52:07;32.95;31.61;34.24;;
71020;Laerm;58902;51.436;5.980;2023-01-25T00:52:17;32.26;30.73;33.94;;
71020;Laerm;58902;51.436;5.980;2023-01-25T00:52:28;32.69;31.21;34.17;;
71020;Laerm;58902;51.436;5.980;2023-01-25T00:52:38;32.56;31.10;33.84;;
71020;Laerm;58902;51.436;5.980;2023-01-25T00:52:48;33.19;31.63;34.31;;
71020;Laerm;58902;51.436;5.980;2023-01-25T00:52:59;33.76;32.61;34.89;;
71020;Laerm;58902;51.436;5.980;2023-01-25T00:53:09;32.02;30.63;34.31;;
71020;Laerm;58902;51.436;5.980;2023-01-25T00:53:20;32.16;30.90;33.26;;
71020;Laerm;58902;51.436;5.980;2023-01-25T00:53:30;32.77;31.17;34.75;;
71020;Laerm;58902;51.436;5.980;2023-01-25T00:53:40;34.37;33.05;35.57;;
71020;Laerm;58902;51.436;5.980;2023-01-25T00:53:51;34.21;32.06;35.70;;
71020;Laerm;58902;51.436;5.980;2023-01-25T00:54:01;34.54;31.76;38.76;;
71020;Laerm;58902;51.436;5.980;2023-01-25T00:54:11;35.91;33.64;37.22;;
71020;Laerm;58902;51.436;5.980;2023-01-25T00:54:22;33.80;31.98;35.54;;
71020;Laerm;58902;51.436;5.980;2023-01-25T00:54:33;31.89;30.38;33.60;;
71020;Laerm;58902;51.436;5.980;2023-01-25T00:54:43;32.00;30.84;33.23;;
71020;Laerm;58902;51.436;5.980;2023-01-25T00:54:54;32.30;31.21;33.69;;
71020;Laerm;58902;51.436;5.980;2023-01-25T00:55:04;32.45;31.01;34.22;;
71020;Laerm;58902;51.436;5.980;2023-01-25T00:55:15;31.96;30.67;33.83;;
71020;Laerm;58902;51.436;5.980;2023-01-25T00:55:25;32.67;30.65;43.94;;
71020;Laerm;58902;51.436;5.980;2023-01-25T00:55:36;33.51;31.23;35.02;;
71020;Laerm;58902;51.436;5.980;2023-01-25T00:55:52;32.90;31.29;34.54;;
71020;Laerm;58902;51.436;5.980;2023-01-25T00:56:02;32.13;30.09;34.21;;
71020;Laerm;58902;51.436;5.980;2023-01-25T00:56:13;31.70;30.39;32.83;;
71020;Laerm;58902;51.436;5.980;2023-01-25T00:56:24;32.32;30.66;34.26;;
71020;Laerm;58902;51.436;5.980;2023-01-25T00:56:34;32.89;29.73;38.20;;
71020;Laerm;58902;51.436;5.980;2023-01-25T00:56:44;33.56;30.99;37.02;;
71020;Laerm;58902;51.436;5.980;2023-01-25T00:56:55;34.23;32.97;35.36;;
71020;Laerm;58902;51.436;5.980;2023-01-25T00:57:06;33.59;30.76;36.19;;
71020;Laerm;58902;51.436;5.980;2023-01-25T00:57:16;33.79;32.35;35.15;;
71020;Laerm;58902;51.436;5.980;2023-01-25T00:57:26;34.38;32.58;36.06;;
71020;Laerm;58902;51.436;5.980;2023-01-25T00:57:37;34.27;32.36;37.13;;
71020;Laerm;58902;51.436;5.980;2023-01-25T00:57:47;33.59;31.73;35.23;;
71020;Laerm;58902;51.436;5.980;2023-01-25T00:57:58;33.55;32.04;34.94;;
71020;Laerm;58902;51.436;5.980;2023-01-25T00:58:08;33.82;31.39;35.50;;
71020;Laerm;58902;51.436;5.980;2023-01-25T00:58:20;33.43;31.81;35.27;;
71020;Laerm;58902;51.436;5.980;2023-01-25T00:58:31;33.48;31.70;34.90;;
71020;Laerm;58902;51.436;5.980;2023-01-25T00:58:41;33.39;31.81;34.57;;
71020;Laerm;58902;51.436;5.980;2023-01-25T00:58:52;33.34;31.34;35.20;;
71020;Laerm;58902;51.436;5.980;2023-01-25T00:59:02;33.28;31.73;35.34;;
71020;Laerm;58902;51.436;5.980;2023-01-25T00:59:12;33.36;31.20;35.32;;
71020;Laerm;58902;51.436;5.980;2023-01-25T00:59:23;31.97;30.17;33.82;;
71020;Laerm;58902;51.436;5.980;2023-01-25T00:59:34;30.73;29.21;32.49;;
71020;Laerm;58902;51.436;5.980;2023-01-25T00:59:44;31.39;29.90;32.81;;
71020;Laerm;58902;51.436;5.980;2023-01-25T00:59:56;31.14;29.53;32.81;;
71020;Laerm;58902;51.436;5.980;2023-01-25T01:00:07;40.61;29.28;54.27;;
71020;Laerm;58902;51.436;5.980;2023-01-25T01:00:17;40.47;29.87;53.38;;
71020;Laerm;58902;51.436;5.980;2023-01-25T01:00:28;31.06;29.89;32.29;;
71020;Laerm;58902;51.436;5.980;2023-01-25T01:00:41;32.29;29.58;35.58;;
71020;Laerm;58902;51.436;5.980;2023-01-25T01:00:54;33.49;31.55;34.75;;
71020;Laerm;58902;51.436;5.980;2023-01-25T01:01:05;31.57;29.61;33.84;;
71020;Laerm;58902;51.436;5.980;2023-01-25T01:01:15;30.48;29.44;31.66;;
71020;Laerm;58902;51.436;5.980;2023-01-25T01:01:26;32.21;29.62;34.30;;
71020;Laerm;58902;51.436;5.980;2023-01-25T01:01:36;32.84;30.53;34.61;;
71020;Laerm;58902;51.436;5.980;2023-01-25T01:01:47;33.44;31.97;34.82;;
71020;Laerm;58902;51.436;5.980;2023-01-25T01:01:57;32.95;31.67;34.02;;
71020;Laerm;58902;51.436;5.980;2023-01-25T01:02:08;36.87;30.37;38.96;;
71020;Laerm;58902;51.436;5.980;2023-01-25T01:02:21;37.72;36.37;38.87;;
71020;Laerm;58902;51.436;5.980;2023-01-25T01:02:31;36.29;30.34;37.33;;
71020;Laerm;58902;51.436;5.980;2023-01-25T01:02:42;32.78;31.86;34.06;;
71020;Laerm;58902;51.436;5.980;2023-01-25T01:02:52;32.59;31.72;33.60;;
71020;Laerm;58902;51.436;5.980;2023-01-25T01:03:02;32.27;31.17;34.71;;
71020;Laerm;58902;51.436;5.980;2023-01-25T01:03:13;32.16;30.57;33.59;;
71020;Laerm;58902;51.436;5.980;2023-01-25T01:03:23;31.76;30.62;33.21;;
71020;Laerm;58902;51.436;5.980;2023-01-25T01:03:34;31.74;29.98;33.35;;
71020;Laerm;58902;51.436;5.980;2023-01-25T01:03:44;31.43;29.52;33.51;;
71020;Laerm;58902;51.436;5.980;2023-01-25T01:03:54;33.14;31.31;34.28;;
71020;Laerm;58902;51.436;5.980;2023-01-25T01:04:05;31.50;29.29;34.24;;
71020;Laerm;58902;51.436;5.980;2023-01-25T01:04:15;35.93;32.96;38.12;;
71020;Laerm;58902;51.436;5.980;2023-01-25T01:04:25;39.13;37.50;40.83;;